Latest Weather Observations for Goulburn Airport

IDN60801

Issued at 1:43 am EST Saturday 5 September 2026 (issued every 10 minutes, with the page automatically refreshed every 10 minutes)

About weather observations | Map of weather stations | Latest weather observations for NSW | Other Formats
Station Details ID: 070330 Name: GOULBURN AIRPORT AWS Lat: -34.81 Lon: 149.73 Height: 640.0 m
Data from the previous 72 hours. | See also: Recent months at Goulburn Airport
Date/Time
EST
Temp
°C
App
Temp
°C
Dew
Point
°C
Rel
Hum
%
Delta-T
°C
Wind Press
QNH
hPa
Press
MSL
hPa
Rain since
9am
mm
Dir  Spd
km/h
Gust
km/h
Spd
kts
Gust
kts
05/01:30am 4.3 3.0 4.2 99 0.0 CALM 0 0 0 0 1018.0 1018.0 0.0
05/01:00am 4.2 2.9 4.1 99 0.0 CALM 0 0 0 0 1018.3 1018.2 0.0
05/12:30am 5.4 3.0 5.3 99 0.0 NNW 7 9 4 5 1018.5 1018.4 0.0
05/12:00am 5.2 3.0 5.1 99 0.0 NNW 6 7 3 4 1018.4 1018.3 0.0
 
Date/Time
EST
Temp
°C
App
Temp
°C
Dew
Point
°C
Rel
Hum
%
Delta-T
°C
Wind Press
QNH
hPa
Press
MSL
hPa
Rain since
9am
mm
Dir  Spd
km/h
Gust
km/h
Spd
kts
Gust
kts
04/11:30pm 5.1 4.0 5.0 99 0.0 CALM 0 0 0 0 1018.5 1018.4 0.0
04/11:00pm 5.4 2.5 4.8 96 0.3 NW 9 11 5 6 1019.1 1019.1 0.0
04/10:30pm 8.0 5.7 7.4 96 0.3 N 9 11 5 6 1019.3 1019.3 0.0
04/10:00pm 7.5 5.0 6.6 94 0.4 NW 9 11 5 6 1019.9 1019.8 0.0
04/09:30pm 8.2 6.0 7.8 97 0.2 NNW 9 9 5 5 1020.1 1020.1 0.0
04/09:00pm 7.9 6.0 7.5 97 0.2 NW 7 9 4 5 1020.2 1020.2 0.0
04/08:30pm 7.5 5.3 6.3 92 0.6 WNW 7 9 4 5 1020.2 1020.2 0.0
04/08:00pm 8.9 6.8 6.7 86 1.1 WNW 7 9 4 5 1020.0 1020.0 0.0
04/07:30pm 10.3 8.1 7.9 85 1.2 W 9 13 5 7 1020.0 1020.0 0.0
04/07:00pm 10.2 7.6 7.8 85 1.2 W 11 11 6 6 1020.2 1020.2 0.0
04/06:30pm 10.4 7.4 7.6 83 1.4 WNW 13 15 7 8 1020.0 1020.0 0.0
04/06:00pm 11.4 7.9 7.1 75 2.1 W 15 19 8 10 1019.9 1019.8 0.0
04/05:30pm 13.4 9.0 7.4 67 3.0 W 20 26 11 14 1019.4 1019.4 0.0
04/05:00pm 14.0 9.7 7.8 66 3.2 W 20 28 11 15 1019.3 1019.3 0.0
04/04:30pm 14.4 10.3 7.7 64 3.4 W 19 32 10 17 1019.1 1019.1 0.0
04/04:00pm 14.4 9.1 7.0 61 3.7 W 24 32 13 17 1019.2 1019.2 0.0
04/03:30pm 14.9 9.6 6.7 58 4.1 W 24 33 13 18 1019.2 1019.2 0.0
04/03:00pm 15.5 8.5 6.2 54 4.6 WNW 32 41 17 22 1019.5 1019.5 0.0
04/02:30pm 16.0 10.2 6.2 52 4.9 WNW 26 35 14 19 1018.9 1018.9 0.0
04/02:00pm 16.0 9.7 5.9 51 5.0 W 28 37 15 20 1019.2 1019.2 0.0
04/01:30pm 15.9 10.1 6.3 53 4.8 W 26 33 14 18 1019.4 1019.4 0.0
04/01:00pm 16.5 10.0 6.6 52 5.0 NW 30 39 16 21 1020.0 1020.0 0.0
04/12:30pm 16.4 10.3 6.5 52 5.0 WNW 28 41 15 22 1020.9 1020.9 0.0
04/12:00pm 15.8 9.7 6.8 55 4.6 WNW 28 35 15 19 1021.1 1021.1 0.0
04/11:30am 14.3 9.6 7.6 64 3.4 W 22 30 12 16 1021.6 1021.6 0.0
04/11:00am 13.5 9.4 7.7 68 2.9 WNW 19 24 10 13 1022.1 1022.1 0.0
04/10:30am 12.9 8.3 8.0 72 2.5 W 22 30 12 16 1022.1 1022.1 0.0
04/10:00am 13.9 10.4 8.9 72 2.6 W 17 22 9 12 1022.4 1022.4 0.0
04/09:30am 12.6 8.5 8.5 76 2.1 W 20 28 11 15 1022.4 1022.4 0.0
04/09:00am 12.5 8.6 8.6 77 2.0 WNW 19 22 10 12 1022.6 1022.7 0.0
04/08:30am 11.3 7.0 9.4 88 1.0 W 22 28 12 15 1022.6 1022.7 0.0
04/08:00am 10.4 7.3 10.2 99 0.1 WNW 17 20 9 11 1022.3 1022.3 0.0
04/07:30am 9.4 6.4 9.4 100 0.0 WNW 15 20 8 11 1022.1 1022.1 0.0
04/07:00am 7.4 4.3 7.4 100 0.0 WNW 13 17 7 9 1022.0 1022.0 0.0
04/06:30am 5.5 1.6 5.5 100 0.0 NW 15 15 8 8 1021.8 1021.8 0.0
04/06:17am 5.2 0.9 5.2 100 0.0 NW 17 19 9 10 1021.7 1021.7 0.0
04/06:00am 2.9 0.2 2.9 100 0.0 NW 6 9 3 5 1021.4 1021.5 0.0
04/05:30am 4.2 1.2 4.2 100 0.0 NW 9 13 5 7 1021.2 1021.3 0.0
04/05:00am 4.7 2.2 4.7 100 0.0 NW 7 9 4 5 1021.1 1021.1 0.0
04/04:30am 5.0 3.5 5.0 100 0.0 WNW 2 6 1 3 1021.0 1021.0 0.0
04/04:00am 4.3 1.9 4.2 99 0.0 W 6 7 3 4 1020.9 1020.9 0.0
04/03:30am 5.8 3.1 5.7 99 0.0 NW 9 13 5 7 1020.6 1020.6 0.0
04/03:00am 6.5 3.2 6.4 99 0.0 NW 13 15 7 8 1020.8 1020.8 0.0
04/02:30am 5.8 4.1 5.7 99 0.0 NW 4 9 2 5 1020.9 1020.9 0.0
04/02:00am 7.0 3.4 6.9 99 0.0 NW 15 19 8 10 1021.0 1021.0 0.0
04/01:30am 6.9 3.3 6.8 99 0.0 NNW 15 17 8 9 1021.0 1021.0 0.0
04/01:00am 7.5 4.0 7.4 99 0.0 WNW 15 22 8 12 1021.2 1021.3 0.0
04/12:30am 8.0 3.3 7.9 99 0.0 WNW 22 30 12 16 1020.9 1020.9 0.0
04/12:00am 8.1 6.1 7.2 94 0.4 NW 7 11 4 6 1021.3 1021.4 0.0
 
Date/Time
EST
Temp
°C
App
Temp
°C
Dew
Point
°C
Rel
Hum
%
Delta-T
°C
Wind Press
QNH
hPa
Press
MSL
hPa
Rain since
9am
mm
Dir  Spd
km/h
Gust
km/h
Spd
kts
Gust
kts
03/11:30pm 8.6 4.4 7.5 93 0.5 WNW 19 26 10 14 1021.0 1021.0 0.0
03/11:00pm 9.2 3.3 7.6 90 0.8 WNW 28 35 15 19 1020.6 1020.6 0.0
03/10:30pm 8.9 3.8 7.5 91 0.7 WNW 24 32 13 17 1020.6 1020.6 0.0
03/10:00pm 9.1 3.6 7.4 89 0.8 WNW 26 37 14 20 1020.6 1020.6 0.0
03/09:30pm 9.3 4.1 7.3 87 1.0 WNW 24 35 13 19 1020.5 1020.5 0.0
03/09:00pm 9.5 3.1 6.8 83 1.3 WNW 30 43 16 23 1020.0 1020.0 0.0
03/08:30pm 9.8 4.4 6.3 79 1.7 W 24 35 13 19 1019.9 1019.8 0.0
03/08:00pm 10.3 3.2 6.3 76 1.9 W 33 41 18 22 1019.1 1019.1 0.0
03/07:30pm 10.4 3.3 6.4 76 1.9 WNW 33 43 18 23 1018.9 1018.9 0.0
03/07:00pm 10.7 4.2 6.3 74 2.1 W 30 39 16 21 1018.7 1018.7 0.0
03/06:30pm 10.6 4.7 6.0 73 2.2 WNW 26 32 14 17 1018.4 1018.3 0.0
03/06:00pm 10.0 3.4 6.0 76 1.9 WNW 30 39 16 21 1017.2 1017.1 0.0
03/05:30pm 11.0 5.8 5.7 70 2.5 WNW 22 33 12 18 1017.2 1017.1 0.0
03/05:00pm 11.6 5.7 5.7 67 2.8 W 26 39 14 21 1017.0 1016.9 0.0
03/04:33pm 12.1 4.1 5.5 64 3.2 W 37 52 20 28 1016.4 1016.4 0.0
03/04:30pm 12.3 4.6 5.5 63 3.3 WNW 35 48 19 26 1016.6 1016.5 0.0
03/04:14pm 12.7 5.6 5.6 62 3.4 W 32 54 17 29 1016.4 1016.4 0.0
03/04:00pm 13.2 5.7 6.1 62 3.5 W 35 48 19 26 1016.4 1016.4 0.0
03/03:59pm 13.3 5.8 6.2 62 3.5 W 35 48 19 26 1016.3 1016.3 0.0
03/03:48pm 13.8 6.8 6.2 60 3.8 W 32 50 17 27 1016.2 1016.2 0.0
03/03:30pm 13.9 6.0 6.3 60 3.8 W 37 54 20 29 1015.9 1015.9 0.0
03/03:00pm 14.1 4.7 5.5 56 4.2 WNW 44 56 24 30 1015.5 1015.4 0.0
03/02:33pm 15.1 6.0 6.7 57 4.2 WNW 44 56 24 30 1015.1 1015.0 0.0
03/02:30pm 14.8 5.3 6.6 58 4.1 WNW 46 61 25 33 1015.1 1015.0 0.0
03/02:23pm 14.8 5.7 5.9 55 4.4 WNW 43 61 23 33 1014.9 1014.8 0.0
03/02:00pm 15.1 5.5 6.4 56 4.4 WNW 46 63 25 34 1014.3 1014.2 0.0
03/01:41pm 14.9 5.2 6.0 55 4.4 WNW 46 59 25 32 1014.1 1014.0 0.0
03/01:31pm 15.3 6.1 6.3 55 4.5 WNW 44 61 24 33 1014.0 1013.9 0.0
03/01:30pm 15.4 6.5 6.7 56 4.4 WNW 43 57 23 31 1014.0 1013.9 0.0
03/01:00pm 15.2 5.8 7.0 58 4.2 W 46 59 25 32 1014.0 1013.9 0.0
03/12:31pm 15.7 6.7 6.4 54 4.7 WNW 43 56 23 30 1014.0 1013.9 0.0
03/12:30pm 15.7 6.6 7.0 56 4.4 WNW 44 56 24 30 1014.0 1013.9 0.0
03/12:12pm 15.5 7.1 5.4 51 5.0 WNW 39 65 21 35 1014.1 1014.0 0.0
03/12:00pm 16.3 8.7 7.5 56 4.5 WNW 37 52 20 28 1014.3 1014.2 0.0
03/11:30am 16.2 8.0 8.2 59 4.2 WNW 41 54 22 29 1014.2 1014.1 0.0
03/11:19am 16.0 8.1 9.4 65 3.5 W 41 54 22 29 1014.1 1014.0 0.0
03/11:00am 15.6 7.1 9.3 66 3.4 WNW 44 63 24 34 1013.9 1013.8 0.0
03/10:30am 15.0 5.6 8.9 67 3.2 W 48 61 26 33 1013.7 1013.6 0.0
03/10:22am 14.6 6.3 9.4 71 2.8 W 43 57 23 31 1013.8 1013.7 0.0
03/10:00am 14.4 7.6 9.2 71 2.7 W 35 50 19 27 1013.9 1013.8 0.0
03/09:38am 14.1 8.0 10.5 79 1.9 WNW 33 52 18 28 1013.6 1013.5 0.0
03/09:37am 14.2 7.8 10.8 80 1.9 WNW 35 52 19 28 1013.6 1013.5 0.0
03/09:30am 14.7 8.4 11.1 79 2.0 WNW 35 52 19 28 1013.4 1013.3 0.0
03/09:25am 14.1 8.2 10.3 78 2.0 W 32 50 17 27 1013.3 1013.2 0.0
03/09:23am 14.3 8.7 11.6 84 1.5 W 32 44 17 24 1013.4 1013.3 0.0
03/09:13am 13.6 8.6 10.8 83 1.5 W 28 46 15 25 1013.1 1013.0 0.0
03/09:00am 13.6 8.1 11.7 88 1.1 W 32 46 17 25 1012.9 1012.8 2.0
03/08:34am 14.0 9.3 11.9 87 1.2 W 28 41 15 22 1012.5 1012.4 2.0
03/08:30am 14.1 9.4 12.1 88 1.1 W 28 41 15 22 1012.3 1012.2 2.0
03/08:00am 14.0 11.0 12.4 90 0.9 WNW 20 28 11 15 1011.7 1011.5 2.0
03/07:30am 12.9 8.8 12.6 98 0.2 WNW 26 33 14 18 1011.3 1011.2 2.0
03/07:00am 11.6 8.2 11.4 99 0.1 W 20 26 11 14 1010.9 1010.8 2.0
03/06:30am 9.3 6.3 9.3 100 0.0 WSW 15 19 8 10 1010.7 1010.6 2.0
03/06:00am 9.9 7.8 9.8 99 0.1 NW 11 13 6 7 1009.7 1009.6 2.0
03/05:30am 10.1 9.0 10.0 99 0.1 WNW 6 7 3 4 1009.7 1009.6 2.0
03/05:00am 11.6 10.7 11.4 99 0.1 NW 7 11 4 6 1009.9 1009.7 1.8
03/04:30am 12.4 9.7 11.8 96 0.3 WNW 17 20 9 11 1010.8 1010.7 1.4
03/04:00am 12.2 9.5 11.7 97 0.3 N 17 20 9 11 1010.2 1010.0 0.8
03/03:30am 12.4 10.3 11.3 93 0.6 NNW 13 20 7 11 1010.7 1010.6 0.6
03/03:00am 13.5 10.6 11.0 85 1.4 NW 17 22 9 12 1011.7 1011.5 0.2
03/02:30am 13.8 10.3 10.8 82 1.6 NW 20 30 11 16 1012.4 1012.3 0.0
03/02:00am 13.8 11.5 10.6 81 1.7 NW 13 19 7 10 1012.7 1012.6 0.0
03/01:30am 13.4 11.0 10.2 81 1.7 NW 13 15 7 8 1012.7 1012.6 0.0
03/01:00am 12.9 11.4 10.4 85 1.3 NW 9 13 5 7 1012.9 1012.8 0.0
03/12:30am 14.9 11.3 9.7 71 2.8 NW 19 24 10 13 1013.7 1013.6 0.0
03/12:00am 15.3 11.2 10.1 71 2.8 WNW 22 32 12 17 1013.9 1013.8 0.0
 
Date/Time
EST
Temp
°C
App
Temp
°C
Dew
Point
°C
Rel
Hum
%
Delta-T
°C
Wind Press
QNH
hPa
Press
MSL
hPa
Rain since
9am
mm
Dir  Spd
km/h
Gust
km/h
Spd
kts
Gust
kts
02/11:30pm 12.5 10.9 10.2 86 1.2 NW 9 11 5 6 1013.9 1013.8 0.0
02/11:00pm 11.8 9.4 9.9 88 1.0 N 13 15 7 8 1014.0 1013.9 0.0
02/10:30pm 13.0 10.8 10.7 86 1.2 NNW 13 15 7 8 1014.4 1014.3 0.0
02/10:00pm 12.5 10.5 10.2 86 1.2 NNW 11 11 6 6 1014.7 1014.7 0.0
02/09:30pm 11.2 9.3 9.1 87 1.1 N 9 11 5 6 1015.0 1014.9 0.0
02/09:00pm 12.9 10.9 10.3 84 1.4 NW 11 13 6 7 1015.2 1015.1 0.0
02/08:30pm 11.6 9.6 8.8 83 1.4 NNW 9 13 5 7 1015.2 1015.1 0.0
02/08:00pm 12.2 9.5 9.0 81 1.7 NW 13 17 7 9 1015.3 1015.2 0.0
02/07:30pm 13.5 10.1 9.2 75 2.3 NW 17 20 9 11 1015.2 1015.1 0.0
02/07:00pm 13.2 10.4 8.7 74 2.3 WNW 13 20 7 11 1015.3 1015.2 0.0
02/06:30pm 13.1 10.7 8.6 74 2.3 NW 11 13 6 7 1015.0 1014.9 0.0
02/06:00pm 14.2 10.2 8.4 68 3.0 WNW 19 24 10 13 1015.0 1014.9 0.0
02/05:30pm 16.3 11.0 8.5 60 4.1 WNW 26 35 14 19 1014.9 1014.8 0.0
02/05:00pm 17.5 11.9 8.9 57 4.6 WNW 28 37 15 20 1014.7 1014.7 0.0
02/04:30pm 17.9 11.6 9.0 56 4.8 WNW 32 41 17 22 1014.9 1014.8 0.0
02/04:00pm 18.4 12.8 8.9 54 5.1 WNW 28 35 15 19 1014.9 1014.8 0.0
02/03:30pm 18.2 13.1 9.3 56 4.8 WNW 26 35 14 19 1015.0 1014.9 0.0
02/03:00pm 18.9 12.4 9.1 53 5.3 WNW 33 46 18 25 1015.2 1015.1 0.0
02/02:51pm 19.0 10.9 8.6 51 5.6 WNW 41 52 22 28 1015.1 1015.0 0.0
02/02:41pm 20.1 13.6 8.8 48 6.1 WNW 33 52 18 28 1015.1 1015.0 0.0
02/02:30pm 19.5 13.0 9.1 51 5.6 W 33 48 18 26 1015.2 1015.1 0.0
02/02:00pm 20.0 12.8 9.3 50 5.8 WNW 37 50 20 27 1015.0 1014.9 0.0
02/01:30pm 18.6 12.5 9.7 56 4.9 W 32 39 17 21 1015.3 1015.2 0.0
02/01:00pm 19.8 13.0 9.4 51 5.7 WNW 35 50 19 27 1015.8 1015.7 0.0
02/12:30pm 19.2 12.2 8.5 50 5.7 WNW 35 46 19 25 1016.2 1016.2 0.0
02/12:00pm 19.3 13.4 8.9 51 5.6 WNW 30 43 16 23 1016.7 1016.6 0.0
02/11:30am 19.0 12.9 9.8 55 5.0 WNW 32 41 17 22 1017.2 1017.1 0.0
02/11:00am 18.1 11.2 8.9 55 4.9 WNW 35 46 19 25 1017.4 1017.4 0.0
02/10:30am 17.8 11.5 8.9 56 4.8 WNW 32 41 17 22 1017.6 1017.6 0.0
02/10:00am 17.5 11.0 8.9 57 4.6 WNW 33 43 18 23 1017.4 1017.4 0.0
02/09:30am 17.0 10.4 7.9 55 4.8 WNW 32 46 17 25 1017.4 1017.4 0.0
02/09:00am 16.9 10.3 8.6 58 4.4 NW 33 44 18 24 1017.4 1017.4 0.0
02/08:55am 16.5 9.4 8.2 58 4.4 WNW 35 43 19 23 1017.4 1017.4 0.0
02/08:45am 16.4 10.7 8.4 59 4.2 NW 28 41 15 22 1017.5 1017.5 0.0
02/08:30am 16.0 12.2 9.0 63 3.7 NW 19 22 10 12 1017.6 1017.6 0.0
02/08:16am 15.3 11.5 9.2 67 3.2 NW 19 22 10 12 1017.6 1017.6 0.0
02/08:00am 14.3 11.2 8.9 70 2.8 NW 15 20 8 11 1017.6 1017.6 0.0
02/07:54am 14.0 11.8 9.2 73 2.5 NW 11 15 6 8 1017.6 1017.6 0.0
02/07:30am 11.6 11.5 9.3 86 1.2 CALM 0 2 0 1 1017.4 1017.4 0.0
02/07:00am 10.1 8.0 9.8 98 0.2 NW 11 15 6 8 1016.9 1016.8 0.0
02/06:30am 9.3 6.1 8.5 95 0.4 NW 15 17 8 9 1016.8 1016.7 0.0
02/06:00am 9.4 7.7 8.3 93 0.6 NNE 7 9 4 5 1017.0 1016.9 0.0
02/05:30am 9.7 9.4 8.6 93 0.6 CALM 0 0 0 0 1016.9 1016.8 0.0
02/05:00am 10.8 8.1 8.9 88 1.0 W 13 19 7 10 1016.9 1016.8 0.0
02/04:30am 11.4 9.0 8.8 84 1.3 NW 11 11 6 6 1016.9 1016.8 0.0
02/04:00am 12.0 8.9 8.7 80 1.7 WNW 15 17 8 9 1017.1 1017.0 0.0
02/03:30am 12.3 8.3 8.2 76 2.1 WNW 19 22 10 12 1017.5 1017.5 0.0
02/03:00am 12.0 8.8 8.3 78 1.9 NW 15 19 8 10 1016.9 1016.8 0.0
02/02:30am 12.0 7.6 7.5 74 2.3 WSW 20 33 11 18 1017.5 1017.5 0.0
02/02:00am 12.9 8.7 7.4 69 2.8 NNW 19 26 10 14 1016.8 1016.7 0.0

Other formats

Comma delimited format used in spreadsheet applications
http://www.bom.gov.au/fwo/IDN60801/IDN60801.95716.axf

JavaScript Object Notation format (JSON) in row-major order
http://www.bom.gov.au/fwo/IDN60801/IDN60801.95716.json

Data quality

Most of these data are generated automatically and are frequently updated. Quality checks on data are not normally performed. It is possible for incorrect values to appear. Refer to information at About Latest Weather Observations and please check the disclaimer before using these data.